createdAt,value
2022-11-05T00:00:10.033Z,1006.64
2022-11-05T00:01:10.009Z,1006.67
2022-11-05T00:02:10.013Z,1006.69
2022-11-05T00:03:10.268Z,1006.71
2022-11-05T00:04:10.095Z,1006.72
2022-11-05T00:05:09.986Z,1006.72
2022-11-05T00:06:09.984Z,1006.72
2022-11-05T00:07:09.942Z,1006.72
2022-11-05T00:08:09.959Z,1006.73
2022-11-05T00:09:09.922Z,1006.73
2022-11-05T00:10:09.931Z,1006.73
2022-11-05T00:11:13.866Z,1006.73
2022-11-05T00:12:09.913Z,1006.72
2022-11-05T00:13:10.242Z,1006.72
2022-11-05T00:14:09.884Z,1006.75
2022-11-05T00:15:09.874Z,1006.77
2022-11-05T00:16:09.859Z,1006.80
2022-11-05T00:17:09.867Z,1006.82
2022-11-05T00:18:09.848Z,1006.84
2022-11-05T00:19:09.815Z,1006.86
2022-11-05T00:20:09.819Z,1006.88
2022-11-05T00:21:09.813Z,1006.89
2022-11-05T00:22:09.796Z,1006.89
2022-11-05T00:23:10.141Z,1006.90
2022-11-05T00:24:09.797Z,1006.90
2022-11-05T00:25:09.752Z,1006.90
2022-11-05T00:26:09.755Z,1006.90
2022-11-05T00:27:09.739Z,1006.92
2022-11-05T00:28:09.739Z,1006.92
2022-11-05T00:29:09.753Z,1006.93
2022-11-05T00:30:09.717Z,1006.93
2022-11-05T00:31:09.705Z,1006.92
2022-11-05T00:32:09.698Z,1006.91
2022-11-05T00:33:09.953Z,1006.91
2022-11-05T00:34:09.669Z,1006.92
2022-11-05T00:35:09.691Z,1006.93
2022-11-05T00:36:09.657Z,1006.95
2022-11-05T00:37:09.628Z,1006.98
2022-11-05T00:38:09.642Z,1007.01
2022-11-05T00:39:09.614Z,1007.01
2022-11-05T00:40:09.614Z,1007.01
2022-11-05T00:41:09.621Z,1007.01
2022-11-05T00:42:09.598Z,1007.00
2022-11-05T00:43:09.921Z,1007.01
2022-11-05T00:44:09.569Z,1007.02
2022-11-05T00:45:09.555Z,1007.02
2022-11-05T00:46:09.543Z,1007.03
2022-11-05T00:47:09.559Z,1007.04
2022-11-05T00:48:09.527Z,1007.05
2022-11-05T00:49:09.516Z,1007.06
2022-11-05T00:50:09.503Z,1007.08
2022-11-05T00:51:09.479Z,1007.10
2022-11-05T00:52:09.502Z,1007.10
2022-11-05T00:53:09.960Z,1007.13
2022-11-05T00:54:09.460Z,1007.15
2022-11-05T00:55:09.448Z,1007.16
2022-11-05T00:56:09.438Z,1007.18
2022-11-05T00:57:09.414Z,1007.19
2022-11-05T00:58:09.432Z,1007.20
2022-11-05T00:59:09.418Z,1007.20
2022-11-05T01:00:09.396Z,1007.20
2022-11-05T01:01:09.483Z,1007.20
2022-11-05T01:02:09.529Z,1007.22
2022-11-05T01:03:09.797Z,1007.24
2022-11-05T01:04:09.392Z,1007.25
2022-11-05T01:05:09.367Z,1007.27
2022-11-05T01:06:09.337Z,1007.28
2022-11-05T01:07:09.314Z,1007.28
2022-11-05T01:08:09.319Z,1007.28
2022-11-05T01:09:09.283Z,1007.29
2022-11-05T01:10:09.294Z,1007.29
2022-11-05T01:11:09.348Z,1007.30
2022-11-05T01:12:09.267Z,1007.30
2022-11-05T01:13:12.868Z,1007.31
2022-11-05T01:14:09.253Z,1007.32
2022-11-05T01:15:09.227Z,1007.32
2022-11-05T01:16:09.229Z,1007.33
2022-11-05T01:17:09.245Z,1007.34
2022-11-05T01:18:09.207Z,1007.35
2022-11-05T01:19:09.188Z,1007.36
2022-11-05T01:20:09.191Z,1007.37
2022-11-05T01:21:09.161Z,1007.39
2022-11-05T01:22:09.162Z,1007.40
2022-11-05T01:23:13.565Z,1007.41
2022-11-05T01:24:09.145Z,1007.42
2022-11-05T01:25:09.122Z,1007.44
2022-11-05T01:26:09.131Z,1007.45
2022-11-05T01:27:09.107Z,1007.47
2022-11-05T01:28:09.132Z,1007.48
2022-11-05T01:29:09.209Z,1007.49
2022-11-05T01:30:09.267Z,1007.50
2022-11-05T01:31:09.058Z,1007.51
2022-11-05T01:32:09.067Z,1007.52
2022-11-05T01:33:09.392Z,1007.53
2022-11-05T01:34:09.042Z,1007.54
2022-11-05T01:35:09.058Z,1007.54
2022-11-05T01:36:09.032Z,1007.52
2022-11-05T01:37:08.998Z,1007.50
2022-11-05T01:38:08.996Z,1007.50
2022-11-05T01:39:08.980Z,1007.49
2022-11-05T01:40:08.978Z,1007.48
2022-11-05T01:41:08.989Z,1007.49
2022-11-05T01:42:08.962Z,1007.50
2022-11-05T01:43:09.274Z,1007.51
2022-11-05T01:44:08.964Z,1007.51
2022-11-05T01:45:08.907Z,1007.52
2022-11-05T01:46:08.915Z,1007.53
2022-11-05T01:47:08.923Z,1007.53
2022-11-05T01:48:08.891Z,1007.55
2022-11-05T01:49:08.864Z,1007.57
2022-11-05T01:50:08.891Z,1007.59
2022-11-05T01:51:08.866Z,1007.58
2022-11-05T01:52:08.849Z,1007.58
2022-11-05T01:53:09.392Z,1007.61
2022-11-05T01:54:08.830Z,1007.61
2022-11-05T01:55:08.810Z,1007.60
2022-11-05T01:56:08.805Z,1007.60
2022-11-05T01:57:08.784Z,1007.61
2022-11-05T01:58:08.785Z,1007.61
2022-11-05T01:59:08.875Z,1007.62
2022-11-05T02:00:08.768Z,1007.64
2022-11-05T02:01:08.739Z,1007.66
2022-11-05T02:02:08.875Z,1007.67
2022-11-05T02:03:09.070Z,1007.67
2022-11-05T02:04:08.722Z,1007.67
2022-11-05T02:05:08.720Z,1007.67
2022-11-05T02:06:08.730Z,1007.68
2022-11-05T02:07:08.676Z,1007.68
2022-11-05T02:08:08.682Z,1007.69
2022-11-05T02:09:08.664Z,1007.68
2022-11-05T02:10:08.662Z,1007.69
2022-11-05T02:11:08.659Z,1007.70
2022-11-05T02:12:08.646Z,1007.70
2022-11-05T02:13:08.923Z,1007.70
2022-11-05T02:14:08.615Z,1007.70
2022-11-05T02:15:08.609Z,1007.69
2022-11-05T02:16:08.597Z,1007.69
2022-11-05T02:17:08.609Z,1007.72
2022-11-05T02:18:08.584Z,1007.74
2022-11-05T02:19:08.553Z,1007.76
2022-11-05T02:20:08.561Z,1007.77
2022-11-05T02:21:08.555Z,1007.78
2022-11-05T02:22:08.535Z,1007.78
2022-11-05T02:23:08.922Z,1007.79
2022-11-05T02:24:08.528Z,1007.80
2022-11-05T02:25:08.493Z,1007.82
2022-11-05T02:26:08.491Z,1007.84
2022-11-05T02:27:08.485Z,1007.84
2022-11-05T02:28:08.477Z,1007.85
2022-11-05T02:29:08.479Z,1007.87
2022-11-05T02:30:08.479Z,1007.89
2022-11-05T02:31:08.425Z,1007.91
2022-11-05T02:32:08.428Z,1007.92
2022-11-05T02:33:08.794Z,1007.93
2022-11-05T02:34:08.411Z,1007.93
2022-11-05T02:35:08.418Z,1007.92
2022-11-05T02:36:08.390Z,1007.93
2022-11-05T02:37:08.380Z,1007.92
2022-11-05T02:38:08.368Z,1007.92
2022-11-05T02:39:08.374Z,1007.93
2022-11-05T02:40:08.347Z,1007.93
2022-11-05T02:41:08.353Z,1007.93
2022-11-05T02:42:08.324Z,1007.92
2022-11-05T02:43:08.569Z,1007.93
2022-11-05T02:44:08.302Z,1007.93
2022-11-05T02:45:08.284Z,1007.93
2022-11-05T02:46:08.326Z,1007.94
2022-11-05T02:47:08.256Z,1007.94
2022-11-05T02:48:08.261Z,1007.94
2022-11-05T02:49:08.272Z,1007.93
2022-11-05T02:50:08.239Z,1007.93
2022-11-05T02:51:08.214Z,1007.93
2022-11-05T02:52:08.243Z,1007.91
2022-11-05T02:53:08.509Z,1007.90
2022-11-05T02:54:08.197Z,1007.91
2022-11-05T02:55:08.194Z,1007.91
2022-11-05T02:56:08.177Z,1007.93
2022-11-05T02:57:08.175Z,1007.93
2022-11-05T02:58:08.215Z,1007.95
2022-11-05T02:59:08.129Z,1007.97
2022-11-05T03:00:08.141Z,1007.99
2022-11-05T03:01:08.128Z,1007.99
2022-11-05T03:02:08.311Z,1007.99
2022-11-05T03:03:08.301Z,1007.98
2022-11-05T03:04:08.110Z,1007.97
2022-11-05T03:05:08.068Z,1007.97
2022-11-05T03:06:08.071Z,1007.96
2022-11-05T03:07:08.097Z,1007.97
2022-11-05T03:08:08.056Z,1007.98
2022-11-05T03:09:08.032Z,1007.99
2022-11-05T03:10:08.036Z,1008.00
2022-11-05T03:11:08.017Z,1008.02
2022-11-05T03:12:08.033Z,1008.04
2022-11-05T03:13:08.170Z,1008.06
2022-11-05T03:14:07.996Z,1008.07
2022-11-05T03:15:07.969Z,1008.08
2022-11-05T03:16:07.966Z,1008.07
2022-11-05T03:17:07.941Z,1008.08
2022-11-05T03:18:07.985Z,1008.08
2022-11-05T03:19:07.924Z,1008.09
2022-11-05T03:20:07.924Z,1008.09
2022-11-05T03:21:07.905Z,1008.10
2022-11-05T03:22:07.898Z,1008.11
2022-11-05T03:23:08.236Z,1008.09
2022-11-05T03:24:07.869Z,1008.08
2022-11-05T03:25:07.892Z,1008.08
2022-11-05T03:26:07.847Z,1008.10
2022-11-05T03:27:07.851Z,1008.12
2022-11-05T03:28:07.852Z,1008.13
2022-11-05T03:29:07.851Z,1008.13
2022-11-05T03:30:07.814Z,1008.14
2022-11-05T03:31:07.866Z,1008.16
2022-11-05T03:32:07.787Z,1008.18
2022-11-05T03:33:07.969Z,1008.16
2022-11-05T03:34:07.785Z,1008.16
2022-11-05T03:35:07.775Z,1008.15
2022-11-05T03:36:07.749Z,1008.16
2022-11-05T03:37:08.451Z,1008.17
2022-11-05T03:38:08.590Z,1008.20
2022-11-05T03:39:08.493Z,1008.22
2022-11-05T03:40:07.704Z,1008.23
2022-11-05T03:41:07.707Z,1008.24
2022-11-05T03:42:07.686Z,1008.23
2022-11-05T03:43:07.867Z,1008.24
2022-11-05T03:44:07.704Z,1008.26
2022-11-05T03:45:07.661Z,1008.28
2022-11-05T03:46:07.642Z,1008.29
2022-11-05T03:47:07.658Z,1008.29
2022-11-05T03:48:07.690Z,1008.28
2022-11-05T03:49:07.621Z,1008.28
2022-11-05T03:50:07.634Z,1008.29
2022-11-05T03:51:07.601Z,1008.30
2022-11-05T03:52:07.580Z,1008.30
2022-11-05T03:53:07.766Z,1008.31
2022-11-05T03:54:07.557Z,1008.33
2022-11-05T03:55:07.585Z,1008.34
2022-11-05T03:56:07.553Z,1008.36
2022-11-05T03:57:07.536Z,1008.36
2022-11-05T03:58:07.520Z,1008.37
2022-11-05T03:59:07.520Z,1008.37
2022-11-05T04:00:07.504Z,1008.37
2022-11-05T04:01:07.531Z,1008.37
2022-11-05T04:02:07.645Z,1008.37
2022-11-05T04:03:07.599Z,1008.37
2022-11-05T04:04:07.449Z,1008.36
2022-11-05T04:05:07.469Z,1008.35
2022-11-05T04:06:07.462Z,1008.35
2022-11-05T04:07:07.436Z,1008.36
2022-11-05T04:08:12.913Z,1008.37
2022-11-05T04:09:07.417Z,1008.37
2022-11-05T04:10:07.385Z,1008.37
2022-11-05T04:11:07.392Z,1008.38
2022-11-05T04:12:07.384Z,1008.39
2022-11-05T04:13:07.521Z,1008.39
2022-11-05T04:14:07.367Z,1008.39
2022-11-05T04:15:07.350Z,1008.39
2022-11-05T04:16:07.322Z,1008.41
2022-11-05T04:17:07.374Z,1008.42
2022-11-05T04:18:07.302Z,1008.44
2022-11-05T04:19:07.308Z,1008.44
2022-11-05T04:20:07.309Z,1008.45
2022-11-05T04:21:07.287Z,1008.44
2022-11-05T04:22:07.260Z,1008.43
2022-11-05T04:23:07.435Z,1008.44
2022-11-05T04:24:07.242Z,1008.45
2022-11-05T04:25:07.244Z,1008.46
2022-11-05T04:26:07.254Z,1008.45
2022-11-05T04:27:07.225Z,1008.43
2022-11-05T04:28:07.217Z,1008.42
2022-11-05T04:29:08.066Z,1008.43
2022-11-05T04:30:07.183Z,1008.44
2022-11-05T04:31:07.191Z,1008.45
2022-11-05T04:32:07.161Z,1008.46
2022-11-05T04:33:07.194Z,1008.47
2022-11-05T04:34:07.133Z,1008.47
2022-11-05T04:35:07.141Z,1008.47
2022-11-05T04:36:07.130Z,1008.46
2022-11-05T04:37:07.115Z,1008.44
2022-11-05T04:38:07.143Z,1008.44
2022-11-05T04:39:07.104Z,1008.45
2022-11-05T04:40:07.073Z,1008.48
2022-11-05T04:41:07.074Z,1008.50
2022-11-05T04:42:07.058Z,1008.51
2022-11-05T04:43:12.048Z,1008.53
2022-11-05T04:44:07.056Z,1008.54
2022-11-05T04:45:07.036Z,1008.56
2022-11-05T04:46:07.013Z,1008.56
2022-11-05T04:47:07.016Z,1008.57
2022-11-05T04:48:07.026Z,1008.58
2022-11-05T04:49:07.015Z,1008.59
2022-11-05T04:50:06.975Z,1008.59
2022-11-05T04:51:06.991Z,1008.59
2022-11-05T04:52:06.949Z,1008.60
2022-11-05T04:53:06.954Z,1008.60
2022-11-05T04:54:06.926Z,1008.60
2022-11-05T04:55:06.956Z,1008.60
2022-11-05T04:56:06.905Z,1008.60
2022-11-05T04:57:06.906Z,1008.60
2022-11-05T04:58:06.885Z,1008.61
2022-11-05T04:59:06.888Z,1008.62
2022-11-05T05:00:06.883Z,1008.61
2022-11-05T05:01:06.929Z,1008.60
2022-11-05T05:02:06.868Z,1008.61
2022-11-05T05:03:06.848Z,1008.63
2022-11-05T05:04:06.824Z,1008.64
2022-11-05T05:05:06.829Z,1008.64
2022-11-05T05:06:06.824Z,1008.63
2022-11-05T05:07:06.818Z,1008.63
2022-11-05T05:08:06.798Z,1008.62
2022-11-05T05:09:06.781Z,1008.63
2022-11-05T05:10:06.759Z,1008.65
2022-11-05T05:11:06.801Z,1008.65
2022-11-05T05:12:06.736Z,1008.65
2022-11-05T05:13:06.741Z,1008.66
2022-11-05T05:14:06.735Z,1008.67
2022-11-05T05:15:06.719Z,1008.68
2022-11-05T05:16:06.903Z,1008.69
2022-11-05T05:17:06.701Z,1008.70
2022-11-05T05:18:06.688Z,1008.70
2022-11-05T05:19:06.685Z,1008.69
2022-11-05T05:20:06.659Z,1008.69
2022-11-05T05:21:06.685Z,1008.68
2022-11-05T05:22:06.655Z,1008.67
2022-11-05T05:23:06.639Z,1008.68
2022-11-05T05:24:06.615Z,1008.67
2022-11-05T05:25:06.615Z,1008.66
2022-11-05T05:26:06.590Z,1008.65
2022-11-05T05:27:06.616Z,1008.64
2022-11-05T05:28:06.576Z,1008.64
2022-11-05T05:29:06.575Z,1008.64
2022-11-05T05:30:06.555Z,1008.64
2022-11-05T05:31:06.550Z,1008.64
2022-11-05T05:32:06.538Z,1008.64
2022-11-05T05:33:06.554Z,1008.65
2022-11-05T05:34:06.512Z,1008.67
2022-11-05T05:35:06.520Z,1008.70
2022-11-05T05:36:11.050Z,1008.71
2022-11-05T05:37:06.496Z,1008.73
2022-11-05T05:38:06.512Z,1008.75
2022-11-05T05:39:06.470Z,1008.78
2022-11-05T05:40:06.449Z,1008.80
2022-11-05T05:41:06.445Z,1008.82
2022-11-05T05:42:06.437Z,1008.84
2022-11-05T05:43:06.461Z,1008.86
2022-11-05T05:44:06.411Z,1008.89
2022-11-05T05:45:06.410Z,1008.91
2022-11-05T05:46:06.380Z,1008.95
2022-11-05T05:47:06.385Z,1008.97
2022-11-05T05:48:06.367Z,1008.98
2022-11-05T05:49:11.247Z,1008.98
2022-11-05T05:50:06.353Z,1008.98
2022-11-05T05:51:06.363Z,1008.98
2022-11-05T05:52:06.323Z,1008.99
2022-11-05T05:53:06.326Z,1009.01
2022-11-05T05:54:06.324Z,1009.02
2022-11-05T05:55:06.306Z,1009.03
2022-11-05T05:56:06.280Z,1009.05
2022-11-05T05:57:06.280Z,1009.07
2022-11-05T05:58:06.261Z,1009.07
2022-11-05T05:59:06.258Z,1009.06
2022-11-05T06:00:06.259Z,1009.06
2022-11-05T06:01:06.248Z,1009.06
2022-11-05T06:02:06.327Z,1009.06
2022-11-05T06:03:06.360Z,1009.06
2022-11-05T06:04:06.221Z,1009.07
2022-11-05T06:05:06.229Z,1009.08
2022-11-05T06:06:06.181Z,1009.09
2022-11-05T06:07:06.184Z,1009.09
2022-11-05T06:08:06.155Z,1009.11
2022-11-05T06:09:06.163Z,1009.12
2022-11-05T06:10:06.130Z,1009.12
2022-11-05T06:11:06.212Z,1009.12
2022-11-05T06:12:06.108Z,1009.13
2022-11-05T06:13:06.121Z,1009.14
2022-11-05T06:14:06.088Z,1009.16
2022-11-05T06:15:06.100Z,1009.19
2022-11-05T06:16:06.106Z,1009.19
2022-11-05T06:17:06.081Z,1009.20
2022-11-05T06:18:06.053Z,1009.22
2022-11-05T06:19:06.049Z,1009.23
2022-11-05T06:20:06.038Z,1009.24
2022-11-05T06:21:06.090Z,1009.25
2022-11-05T06:22:06.148Z,1009.26
2022-11-05T06:23:06.011Z,1009.27
2022-11-05T06:24:05.983Z,1009.27
2022-11-05T06:25:06.015Z,1009.27
2022-11-05T06:26:05.975Z,1009.27
2022-11-05T06:27:05.999Z,1009.27
2022-11-05T06:28:05.950Z,1009.30
2022-11-05T06:29:05.978Z,1009.32
2022-11-05T06:30:05.925Z,1009.34
2022-11-05T06:31:05.944Z,1009.36
2022-11-05T06:32:05.924Z,1009.38
2022-11-05T06:33:05.908Z,1009.40
2022-11-05T06:34:05.879Z,1009.40
2022-11-05T06:35:05.881Z,1009.41
2022-11-05T06:36:05.860Z,1009.41
2022-11-05T06:37:05.860Z,1009.41
2022-11-05T06:38:05.862Z,1009.41
2022-11-05T06:39:05.844Z,1009.40
2022-11-05T06:40:05.821Z,1009.41
2022-11-05T06:41:10.034Z,1009.42
2022-11-05T06:42:18.434Z,1009.42
2022-11-05T06:43:05.838Z,1009.43
2022-11-05T06:44:05.794Z,1009.44
2022-11-05T06:45:05.778Z,1009.45
2022-11-05T06:46:05.757Z,1009.46
2022-11-05T06:47:05.754Z,1009.47
2022-11-05T06:48:05.730Z,1009.48
2022-11-05T06:49:05.757Z,1009.51
2022-11-05T06:50:05.711Z,1009.53
2022-11-05T06:51:05.717Z,1009.56
2022-11-05T06:52:05.688Z,1009.58
2022-11-05T06:53:05.699Z,1009.60
2022-11-05T06:54:05.694Z,1009.62
2022-11-05T06:55:05.673Z,1009.65
2022-11-05T06:56:05.656Z,1009.67
2022-11-05T06:57:05.651Z,1009.69
2022-11-05T06:58:05.628Z,1009.69
2022-11-05T06:59:05.630Z,1009.70
2022-11-05T07:00:07.976Z,1009.71
2022-11-05T07:01:05.666Z,1009.71
2022-11-05T07:02:05.645Z,1009.70
2022-11-05T07:03:05.595Z,1009.70
2022-11-05T07:04:05.563Z,1009.71
2022-11-05T07:05:05.604Z,1009.72
2022-11-05T07:06:05.546Z,1009.74
2022-11-05T07:07:05.548Z,1009.76
2022-11-05T07:08:05.524Z,1009.78
2022-11-05T07:09:05.536Z,1009.80
2022-11-05T07:10:05.503Z,1009.82
2022-11-05T07:11:05.554Z,1009.84
2022-11-05T07:12:05.482Z,1009.87
2022-11-05T07:13:08.403Z,1009.88
2022-11-05T07:14:05.462Z,1009.88
2022-11-05T07:15:05.470Z,1009.90
2022-11-05T07:16:05.475Z,1009.90
2022-11-05T07:17:05.477Z,1009.91
2022-11-05T07:18:05.420Z,1009.91
2022-11-05T07:19:05.470Z,1009.90
2022-11-05T07:20:05.400Z,1009.90
2022-11-05T07:21:05.409Z,1009.89
2022-11-05T07:22:05.398Z,1009.88
2022-11-05T07:23:05.383Z,1009.88
2022-11-05T07:24:05.358Z,1009.90
2022-11-05T07:25:05.369Z,1009.90
2022-11-05T07:26:05.342Z,1009.90
2022-11-05T07:27:05.374Z,1009.92
2022-11-05T07:28:05.314Z,1009.92
2022-11-05T07:29:05.323Z,1009.93
2022-11-05T07:30:05.299Z,1009.95
2022-11-05T07:31:05.309Z,1009.94
2022-11-05T07:32:05.276Z,1009.95
2022-11-05T07:33:05.361Z,1009.94
2022-11-05T07:34:05.255Z,1009.94
2022-11-05T07:35:05.259Z,1009.95
2022-11-05T07:36:05.233Z,1009.96
2022-11-05T07:37:05.238Z,1009.97
2022-11-05T07:38:05.252Z,1009.97
2022-11-05T07:39:05.201Z,1009.98
2022-11-05T07:40:05.208Z,1009.98
2022-11-05T07:41:05.181Z,1009.98
2022-11-05T07:42:05.187Z,1009.99
2022-11-05T07:43:05.165Z,1010.01
2022-11-05T07:44:05.188Z,1010.04
2022-11-05T07:45:05.155Z,1010.05
2022-11-05T07:46:08.603Z,1010.06
2022-11-05T07:47:05.134Z,1010.07
2022-11-05T07:48:05.123Z,1010.08
2022-11-05T07:49:05.122Z,1010.09
2022-11-05T07:50:05.108Z,1010.10
2022-11-05T07:51:05.085Z,1010.11
2022-11-05T07:52:05.083Z,1010.11
2022-11-05T07:53:05.056Z,1010.12
2022-11-05T07:54:05.059Z,1010.12
2022-11-05T07:55:05.054Z,1010.14
2022-11-05T07:56:05.039Z,1010.14
2022-11-05T07:57:05.016Z,1010.17
2022-11-05T07:58:05.022Z,1010.18
2022-11-05T07:59:04.988Z,1010.21
2022-11-05T08:00:05.029Z,1010.21
2022-11-05T08:01:05.094Z,1010.24
2022-11-05T08:02:05.199Z,1010.24
2022-11-05T08:03:08.241Z,1010.25
2022-11-05T08:04:04.952Z,1010.24
2022-11-05T08:05:04.927Z,1010.25
2022-11-05T08:06:04.953Z,1010.27
2022-11-05T08:07:04.905Z,1010.27
2022-11-05T08:08:04.913Z,1010.27
2022-11-05T08:09:04.884Z,1010.28
2022-11-05T08:10:04.892Z,1010.28
2022-11-05T08:11:04.887Z,1010.29
2022-11-05T08:12:04.868Z,1010.29
2022-11-05T08:13:04.857Z,1010.29
2022-11-05T08:14:04.848Z,1010.29
2022-11-05T08:15:04.823Z,1010.30
2022-11-05T08:16:04.848Z,1010.31
2022-11-05T08:17:04.801Z,1010.32
2022-11-05T08:18:04.813Z,1010.31
2022-11-05T08:19:04.780Z,1010.30
2022-11-05T08:20:04.783Z,1010.29
2022-11-05T08:21:04.758Z,1010.29
2022-11-05T08:22:04.782Z,1010.28
2022-11-05T08:23:04.737Z,1010.24
2022-11-05T08:24:04.746Z,1010.25
2022-11-05T08:25:06.940Z,1010.26
2022-11-05T08:26:04.719Z,1010.27
2022-11-05T08:27:04.722Z,1010.27
2022-11-05T08:28:04.703Z,1010.27
2022-11-05T08:29:04.682Z,1010.25
2022-11-05T08:30:04.677Z,1010.28
2022-11-05T08:31:04.656Z,1010.28
2022-11-05T08:32:04.655Z,1010.29
2022-11-05T08:33:04.654Z,1010.30
2022-11-05T08:34:04.636Z,1010.29
2022-11-05T08:35:04.615Z,1010.29
2022-11-05T08:36:04.618Z,1010.29
2022-11-05T08:37:04.591Z,1010.30
2022-11-05T08:38:04.631Z,1010.30
2022-11-05T08:39:04.572Z,1010.30
2022-11-05T08:40:04.577Z,1010.31
2022-11-05T08:41:04.552Z,1010.34
2022-11-05T08:42:04.555Z,1010.33
2022-11-05T08:43:04.524Z,1010.37
2022-11-05T08:44:04.552Z,1010.37
2022-11-05T08:45:04.504Z,1010.37
2022-11-05T08:46:04.511Z,1010.37
2022-11-05T08:47:04.497Z,1010.38
2022-11-05T08:48:04.493Z,1010.39
2022-11-05T08:49:04.484Z,1010.39
2022-11-05T08:50:04.466Z,1010.40
2022-11-05T08:51:04.442Z,1010.41
2022-11-05T08:52:04.442Z,1010.40
2022-11-05T08:53:04.420Z,1010.39
2022-11-05T08:54:04.457Z,1010.38
2022-11-05T08:55:04.398Z,1010.40
2022-11-05T08:56:04.409Z,1010.38
2022-11-05T08:57:04.378Z,1010.40
2022-11-05T08:58:04.383Z,1010.40
2022-11-05T08:59:04.359Z,1010.40
2022-11-05T09:00:04.380Z,1010.42
2022-11-05T09:01:05.454Z,1010.43
2022-11-05T09:02:04.502Z,1010.44
2022-11-05T09:03:04.320Z,1010.45
2022-11-05T09:04:04.322Z,1010.48
2022-11-05T09:05:04.318Z,1010.48
2022-11-05T09:06:04.303Z,1010.48
2022-11-05T09:07:04.281Z,1010.48
2022-11-05T09:08:04.274Z,1010.48
2022-11-05T09:09:04.257Z,1010.51
2022-11-05T09:10:04.255Z,1010.49
2022-11-05T09:11:04.257Z,1010.49
2022-11-05T09:12:12.905Z,1010.48
2022-11-05T09:13:04.220Z,1010.48
2022-11-05T09:14:04.215Z,1010.49
2022-11-05T09:15:04.185Z,1010.48
2022-11-05T09:16:04.429Z,1010.51
2022-11-05T09:17:04.167Z,1010.49
2022-11-05T09:18:04.168Z,1010.49
2022-11-05T09:19:04.145Z,1010.50
2022-11-05T09:20:04.148Z,1010.49
2022-11-05T09:21:04.159Z,1010.51
2022-11-05T09:22:04.137Z,1010.50
2022-11-05T09:23:04.101Z,1010.50
2022-11-05T09:24:04.108Z,1010.51
2022-11-05T09:25:04.080Z,1010.53
2022-11-05T09:26:04.102Z,1010.55
2022-11-05T09:27:04.082Z,1010.54
2022-11-05T09:28:04.062Z,1010.58
2022-11-05T09:29:04.040Z,1010.57
2022-11-05T09:30:04.043Z,1010.57
2022-11-05T09:31:04.023Z,1010.57
2022-11-05T09:32:04.059Z,1010.55
2022-11-05T09:33:03.998Z,1010.61
2022-11-05T09:34:04.000Z,1010.61
2022-11-05T09:35:03.973Z,1010.61
2022-11-05T09:36:03.980Z,1010.61
2022-11-05T09:37:03.952Z,1010.66
2022-11-05T09:38:03.978Z,1010.64
2022-11-05T09:39:03.931Z,1010.66
2022-11-05T09:40:03.941Z,1010.63
2022-11-05T09:41:03.913Z,1010.59
2022-11-05T09:42:03.917Z,1010.61
2022-11-05T09:43:03.924Z,1010.61
2022-11-05T09:44:03.900Z,1010.63
2022-11-05T09:45:03.871Z,1010.66
2022-11-05T09:46:03.871Z,1010.67
2022-11-05T09:47:03.861Z,1010.69
2022-11-05T09:48:03.854Z,1010.67
2022-11-05T09:49:03.848Z,1010.68
2022-11-05T09:50:03.841Z,1010.67
2022-11-05T09:51:03.803Z,1010.68
2022-11-05T09:52:03.811Z,1010.70
2022-11-05T09:53:03.782Z,1010.72
2022-11-05T09:54:03.807Z,1010.72
2022-11-05T09:55:03.788Z,1010.70
2022-11-05T09:56:03.768Z,1010.72
2022-11-05T09:57:03.739Z,1010.72
2022-11-05T09:58:03.752Z,1010.67
2022-11-05T09:59:03.752Z,1010.70
2022-11-05T10:00:03.721Z,1010.71
2022-11-05T10:01:03.776Z,1010.72
2022-11-05T10:02:03.870Z,1010.72
2022-11-05T10:03:03.674Z,1010.71
2022-11-05T10:04:03.687Z,1010.73
2022-11-05T10:05:09.433Z,1010.75
2022-11-05T10:06:03.661Z,1010.75
2022-11-05T10:07:03.631Z,1010.78
2022-11-05T10:08:03.640Z,1010.79
2022-11-05T10:09:03.615Z,1010.80
2022-11-05T10:10:03.614Z,1010.86
2022-11-05T10:11:03.620Z,1010.87
2022-11-05T10:12:03.596Z,1010.86
2022-11-05T10:13:03.575Z,1010.89
2022-11-05T10:14:03.572Z,1010.88
2022-11-05T10:15:03.551Z,1010.91
2022-11-05T10:16:03.566Z,1010.88
2022-11-05T10:17:03.579Z,1010.95
2022-11-05T10:18:03.528Z,1010.91
2022-11-05T10:19:03.518Z,1010.93
2022-11-05T10:20:03.506Z,1010.93
2022-11-05T10:21:03.538Z,1010.93
2022-11-05T10:22:07.354Z,1010.90
2022-11-05T10:23:03.468Z,1010.94
2022-11-05T10:24:03.469Z,1010.92
2022-11-05T10:25:03.442Z,1010.94
2022-11-05T10:26:03.449Z,1010.95
2022-11-05T10:27:03.615Z,1010.94
2022-11-05T10:28:03.425Z,1010.90
2022-11-05T10:29:03.403Z,1010.93
2022-11-05T10:30:03.402Z,1010.91
2022-11-05T10:31:03.377Z,1010.89
2022-11-05T10:32:03.384Z,1010.84
2022-11-05T10:33:03.535Z,1010.85
2022-11-05T10:34:03.360Z,1010.84
2022-11-05T10:35:03.333Z,1010.82
2022-11-05T10:36:03.337Z,1010.78
2022-11-05T10:37:03.314Z,1010.73
2022-11-05T10:38:03.320Z,1010.74
2022-11-05T10:39:03.330Z,1010.73
2022-11-05T10:40:03.299Z,1010.70
2022-11-05T10:41:03.275Z,1010.66
2022-11-05T10:42:03.279Z,1010.66
2022-11-05T10:43:03.250Z,1010.66
2022-11-05T10:44:03.251Z,1010.68
2022-11-05T10:45:03.280Z,1010.61
2022-11-05T10:46:03.232Z,1010.61
2022-11-05T10:47:03.227Z,1010.59
2022-11-05T10:48:03.214Z,1010.60
2022-11-05T10:49:03.185Z,1010.57
2022-11-05T10:50:03.192Z,1010.56
2022-11-05T10:51:03.197Z,1010.56
2022-11-05T10:52:03.164Z,1010.56
2022-11-05T10:53:03.146Z,1010.57
2022-11-05T10:54:03.142Z,1010.59
2022-11-05T10:55:03.134Z,1010.61
2022-11-05T10:56:03.127Z,1010.55
2022-11-05T10:57:03.132Z,1010.61
2022-11-05T10:58:03.107Z,1010.60
2022-11-05T10:59:06.731Z,1010.53
2022-11-05T11:00:03.824Z,1010.53
2022-11-05T11:01:03.153Z,1010.52
2022-11-05T11:02:03.272Z,1010.50
2022-11-05T11:03:03.070Z,1010.56
2022-11-05T11:04:03.045Z,1010.62
2022-11-05T11:05:03.278Z,1010.59
2022-11-05T11:06:03.018Z,1010.58
2022-11-05T11:07:02.991Z,1010.59
2022-11-05T11:08:02.993Z,1010.49
2022-11-05T11:09:03.004Z,1010.51
2022-11-05T11:10:02.979Z,1010.46
2022-11-05T11:11:02.946Z,1010.45
2022-11-05T11:12:02.957Z,1010.43
2022-11-05T11:13:02.937Z,1010.42
2022-11-05T11:14:02.957Z,1010.39
2022-11-05T11:15:02.921Z,1010.42
2022-11-05T11:16:02.917Z,1010.38
2022-11-05T11:17:02.884Z,1010.40
2022-11-05T11:18:02.891Z,1010.40
2022-11-05T11:19:02.864Z,1010.38
2022-11-05T11:20:02.898Z,1010.37
2022-11-05T11:21:02.843Z,1010.45
2022-11-05T11:22:02.843Z,1010.49
2022-11-05T11:23:02.817Z,1010.54
2022-11-05T11:24:02.826Z,1010.57
2022-11-05T11:25:02.800Z,1010.58
2022-11-05T11:26:02.826Z,1010.58
2022-11-05T11:27:02.781Z,1010.55
2022-11-05T11:28:02.780Z,1010.52
2022-11-05T11:29:02.765Z,1010.53
2022-11-05T11:30:02.783Z,1010.57
2022-11-05T11:31:02.764Z,1010.53
2022-11-05T11:32:02.776Z,1010.54
2022-11-05T11:33:02.712Z,1010.55
2022-11-05T11:34:02.718Z,1010.62
2022-11-05T11:35:02.736Z,1010.64
2022-11-05T11:36:02.728Z,1010.69
2022-11-05T11:37:02.728Z,1010.73
2022-11-05T11:38:02.755Z,1010.76
2022-11-05T11:39:02.651Z,1010.79
2022-11-05T11:40:02.660Z,1010.77
2022-11-05T11:41:02.634Z,1010.80
2022-11-05T11:42:02.629Z,1010.78
2022-11-05T11:43:02.620Z,1010.76
2022-11-05T11:44:02.645Z,1010.75
2022-11-05T11:45:02.585Z,1010.74
2022-11-05T11:46:06.930Z,1010.82
2022-11-05T11:47:02.561Z,1010.79
2022-11-05T11:48:02.579Z,1010.82
2022-11-05T11:49:02.568Z,1010.83
2022-11-05T11:50:02.561Z,1010.84
2022-11-05T11:51:02.521Z,1010.81
2022-11-05T11:52:02.509Z,1010.83
2022-11-05T11:53:02.506Z,1010.88
2022-11-05T11:54:02.483Z,1010.90
2022-11-05T11:55:02.512Z,1010.90
2022-11-05T11:56:02.463Z,1010.92
2022-11-05T11:57:02.478Z,1010.93
2022-11-05T11:58:02.438Z,1010.92
2022-11-05T11:59:02.463Z,1010.94
2022-11-05T12:00:08.947Z,1010.97
2022-11-05T12:01:02.501Z,1010.95
2022-11-05T12:02:02.616Z,1010.95
2022-11-05T12:03:02.552Z,1010.95
2022-11-05T12:04:02.378Z,1010.94
2022-11-05T12:05:02.378Z,1010.94